sensor_id;sensor_type;location;lat;lon;timestamp;pressure;altitude;pressure_sealevel;temperature;humidity
6506;BME280;3286;49.858;8.768;2023-11-19T00:01:44;98960.06;;;10.39;66.16
6506;BME280;3286;49.858;8.768;2023-11-19T00:04:12;98963.94;;;10.26;66.52
6506;BME280;3286;49.858;8.768;2023-11-19T00:06:39;98958.53;;;10.10;67.31
6506;BME280;3286;49.858;8.768;2023-11-19T00:09:06;98952.66;;;9.98;67.84
6506;BME280;3286;49.858;8.768;2023-11-19T00:11:34;98951.72;;;10.25;66.47
6506;BME280;3286;49.858;8.768;2023-11-19T00:14:00;98958.66;;;10.26;66.43
6506;BME280;3286;49.858;8.768;2023-11-19T00:16:27;98957.41;;;9.94;67.42
6506;BME280;3286;49.858;8.768;2023-11-19T00:18:55;98951.59;;;9.91;68.16
6506;BME280;3286;49.858;8.768;2023-11-19T00:21:21;98946.81;;;10.57;65.65
6506;BME280;3286;49.858;8.768;2023-11-19T00:23:48;98947.72;;;10.21;67.31
6506;BME280;3286;49.858;8.768;2023-11-19T00:26:15;98952.22;;;9.84;68.96
6506;BME280;3286;49.858;8.768;2023-11-19T00:28:41;98950.22;;;10.05;67.90
6506;BME280;3286;49.858;8.768;2023-11-19T00:31:09;98959.63;;;9.81;69.17
6506;BME280;3286;49.858;8.768;2023-11-19T00:33:37;98967.47;;;10.17;67.25
6506;BME280;3286;49.858;8.768;2023-11-19T00:36:08;98960.38;;;9.73;69.09
6506;BME280;3286;49.858;8.768;2023-11-19T00:38:35;98955.88;;;10.10;67.67
6506;BME280;3286;49.858;8.768;2023-11-19T00:41:02;98948.06;;;10.71;66.40
6506;BME280;3286;49.858;8.768;2023-11-19T00:43:31;98959.41;;;10.63;65.73
6506;BME280;3286;49.858;8.768;2023-11-19T00:45:58;98960.66;;;10.51;66.64
6506;BME280;3286;49.858;8.768;2023-11-19T00:48:25;98961.34;;;10.87;64.98
6506;BME280;3286;49.858;8.768;2023-11-19T00:50:53;98943.41;;;11.08;65.02
6506;BME280;3286;49.858;8.768;2023-11-19T00:53:21;98937.00;;;11.10;64.29
6506;BME280;3286;49.858;8.768;2023-11-19T00:55:48;98950.03;;;11.12;64.41
6506;BME280;3286;49.858;8.768;2023-11-19T00:58:15;98945.59;;;10.78;65.67
6506;BME280;3286;49.858;8.768;2023-11-19T01:00:43;98942.22;;;10.59;66.59
6506;BME280;3286;49.858;8.768;2023-11-19T01:03:10;98955.75;;;10.99;64.55
6506;BME280;3286;49.858;8.768;2023-11-19T01:05:38;98947.38;;;10.69;65.56
6506;BME280;3286;49.858;8.768;2023-11-19T01:08:06;98943.25;;;11.09;64.97
6506;BME280;3286;49.858;8.768;2023-11-19T01:10:36;98938.75;;;10.93;65.08
6506;BME280;3286;49.858;8.768;2023-11-19T01:13:03;98946.72;;;11.10;64.83
6506;BME280;3286;49.858;8.768;2023-11-19T01:15:31;98944.03;;;10.93;65.38
6506;BME280;3286;49.858;8.768;2023-11-19T01:17:57;98946.47;;;10.86;66.10
6506;BME280;3286;49.858;8.768;2023-11-19T01:20:24;98952.38;;;10.46;68.13
6506;BME280;3286;49.858;8.768;2023-11-19T01:22:51;98944.31;;;10.82;67.05
6506;BME280;3286;49.858;8.768;2023-11-19T01:25:18;98929.59;;;10.79;66.76
6506;BME280;3286;49.858;8.768;2023-11-19T01:27:47;98932.41;;;10.25;68.59
6506;BME280;3286;49.858;8.768;2023-11-19T01:30:15;98923.38;;;10.54;68.10
6506;BME280;3286;49.858;8.768;2023-11-19T01:32:42;98910.75;;;10.74;67.39
6506;BME280;3286;49.858;8.768;2023-11-19T01:35:08;98896.59;;;10.22;69.06
6506;BME280;3286;49.858;8.768;2023-11-19T01:37:35;98902.03;;;10.47;68.80
6506;BME280;3286;49.858;8.768;2023-11-19T01:40:02;98894.31;;;10.54;68.75
6506;BME280;3286;49.858;8.768;2023-11-19T01:42:30;98876.84;;;10.61;68.42
6506;BME280;3286;49.858;8.768;2023-11-19T01:45:01;98893.75;;;10.77;67.65
6506;BME280;3286;49.858;8.768;2023-11-19T01:47:30;98873.81;;;10.48;68.34
6506;BME280;3286;49.858;8.768;2023-11-19T01:49:57;98861.19;;;10.68;67.76
6506;BME280;3286;49.858;8.768;2023-11-19T01:52:27;98868.34;;;10.41;69.14
6506;BME280;3286;49.858;8.768;2023-11-19T01:54:53;98877.28;;;10.83;67.66
6506;BME280;3286;49.858;8.768;2023-11-19T01:57:22;98872.81;;;10.92;67.35
6506;BME280;3286;49.858;8.768;2023-11-19T01:59:51;98869.34;;;10.48;68.84
6506;BME280;3286;49.858;8.768;2023-11-19T02:02:20;98888.38;;;10.52;68.16
6506;BME280;3286;49.858;8.768;2023-11-19T02:04:49;98883.56;;;10.29;69.25
6506;BME280;3286;49.858;8.768;2023-11-19T02:07:16;98871.69;;;10.60;68.04
6506;BME280;3286;49.858;8.768;2023-11-19T02:09:45;98876.22;;;10.76;68.32
6506;BME280;3286;49.858;8.768;2023-11-19T02:12:12;98862.63;;;10.54;69.30
6506;BME280;3286;49.858;8.768;2023-11-19T02:14:39;98852.91;;;10.36;69.42
6506;BME280;3286;49.858;8.768;2023-11-19T02:17:06;98846.81;;;10.70;68.36
6506;BME280;3286;49.858;8.768;2023-11-19T02:19:35;98848.31;;;10.65;68.51
6506;BME280;3286;49.858;8.768;2023-11-19T02:22:03;98837.66;;;11.08;66.98
6506;BME280;3286;49.858;8.768;2023-11-19T02:24:31;98838.16;;;10.43;68.78
6506;BME280;3286;49.858;8.768;2023-11-19T02:27:06;98824.84;;;10.62;69.20
6506;BME280;3286;49.858;8.768;2023-11-19T02:29:36;98822.94;;;10.89;67.41
6506;BME280;3286;49.858;8.768;2023-11-19T02:32:03;98830.69;;;10.82;68.24
6506;BME280;3286;49.858;8.768;2023-11-19T02:34:30;98821.59;;;10.76;67.46
6506;BME280;3286;49.858;8.768;2023-11-19T02:36:57;98830.63;;;10.65;68.78
6506;BME280;3286;49.858;8.768;2023-11-19T02:39:24;98834.16;;;10.82;68.39
6506;BME280;3286;49.858;8.768;2023-11-19T02:41:51;98841.28;;;10.47;68.92
6506;BME280;3286;49.858;8.768;2023-11-19T02:44:18;98830.41;;;11.10;67.81
6506;BME280;3286;49.858;8.768;2023-11-19T02:46:46;98839.22;;;11.52;66.72
6506;BME280;3286;49.858;8.768;2023-11-19T02:49:14;98821.84;;;11.33;66.77
6506;BME280;3286;49.858;8.768;2023-11-19T02:51:40;98826.16;;;11.34;67.02
6506;BME280;3286;49.858;8.768;2023-11-19T02:54:07;98824.31;;;11.34;66.87
6506;BME280;3286;49.858;8.768;2023-11-19T02:56:35;98818.03;;;11.02;67.54
6506;BME280;3286;49.858;8.768;2023-11-19T02:59:02;98811.25;;;11.16;67.42
6506;BME280;3286;49.858;8.768;2023-11-19T03:01:37;98808.44;;;11.34;66.72
6506;BME280;3286;49.858;8.768;2023-11-19T03:04:10;98803.16;;;11.59;66.68
6506;BME280;3286;49.858;8.768;2023-11-19T03:06:37;98797.56;;;11.45;66.77
6506;BME280;3286;49.858;8.768;2023-11-19T03:09:04;98797.50;;;12.03;64.46
6506;BME280;3286;49.858;8.768;2023-11-19T03:11:35;98792.22;;;11.79;65.54
6506;BME280;3286;49.858;8.768;2023-11-19T03:14:02;98803.13;;;11.92;65.28
6506;BME280;3286;49.858;8.768;2023-11-19T03:16:29;98808.69;;;12.22;63.98
6506;BME280;3286;49.858;8.768;2023-11-19T03:18:56;98805.22;;;12.22;64.08
6506;BME280;3286;49.858;8.768;2023-11-19T03:21:28;98804.38;;;12.21;64.26
6506;BME280;3286;49.858;8.768;2023-11-19T03:23:56;98808.28;;;11.44;66.17
6506;BME280;3286;49.858;8.768;2023-11-19T03:26:22;98805.28;;;11.80;66.02
6506;BME280;3286;49.858;8.768;2023-11-19T03:28:48;98808.41;;;12.00;65.00
6506;BME280;3286;49.858;8.768;2023-11-19T03:31:15;98808.78;;;11.64;66.70
6506;BME280;3286;49.858;8.768;2023-11-19T03:33:42;98791.78;;;11.34;68.03
6506;BME280;3286;49.858;8.768;2023-11-19T03:36:08;98783.81;;;11.67;67.51
6506;BME280;3286;49.858;8.768;2023-11-19T03:38:37;98787.06;;;11.94;65.92
6506;BME280;3286;49.858;8.768;2023-11-19T03:41:11;98787.75;;;11.79;66.33
6506;BME280;3286;49.858;8.768;2023-11-19T03:43:38;98777.84;;;11.56;67.73
6506;BME280;3286;49.858;8.768;2023-11-19T03:46:05;98773.22;;;11.75;67.16
6506;BME280;3286;49.858;8.768;2023-11-19T03:48:31;98764.22;;;11.93;66.63
6506;BME280;3286;49.858;8.768;2023-11-19T03:50:58;98776.38;;;11.54;68.00
6506;BME280;3286;49.858;8.768;2023-11-19T03:53:24;98781.50;;;11.14;69.82
6506;BME280;3286;49.858;8.768;2023-11-19T03:55:52;98786.31;;;11.52;68.75
6506;BME280;3286;49.858;8.768;2023-11-19T03:58:19;98780.69;;;11.55;68.62
6506;BME280;3286;49.858;8.768;2023-11-19T04:00:46;98780.19;;;11.10;70.45
6506;BME280;3286;49.858;8.768;2023-11-19T04:03:13;98779.31;;;11.92;67.82
6506;BME280;3286;49.858;8.768;2023-11-19T04:05:39;98767.59;;;11.62;68.03
6506;BME280;3286;49.858;8.768;2023-11-19T04:08:06;98764.75;;;11.88;68.17
6506;BME280;3286;49.858;8.768;2023-11-19T04:10:32;98769.19;;;11.96;67.11
6506;BME280;3286;49.858;8.768;2023-11-19T04:13:00;98769.22;;;12.04;67.27
6506;BME280;3286;49.858;8.768;2023-11-19T04:15:27;98777.47;;;11.84;68.14
6506;BME280;3286;49.858;8.768;2023-11-19T04:17:54;98774.16;;;11.91;67.56
6506;BME280;3286;49.858;8.768;2023-11-19T04:20:21;98771.00;;;11.95;67.75
6506;BME280;3286;49.858;8.768;2023-11-19T04:22:47;98775.03;;;12.31;67.01
6506;BME280;3286;49.858;8.768;2023-11-19T04:25:16;98768.09;;;11.65;69.35
6506;BME280;3286;49.858;8.768;2023-11-19T04:27:44;98777.84;;;11.56;69.56
6506;BME280;3286;49.858;8.768;2023-11-19T04:30:14;98773.22;;;11.75;68.06
6506;BME280;3286;49.858;8.768;2023-11-19T04:32:41;98779.53;;;12.30;66.90
6506;BME280;3286;49.858;8.768;2023-11-19T04:35:08;98776.66;;;11.92;68.40
6506;BME280;3286;49.858;8.768;2023-11-19T04:37:36;98777.66;;;11.83;69.13
6506;BME280;3286;49.858;8.768;2023-11-19T04:40:03;98766.13;;;11.59;69.88
6506;BME280;3286;49.858;8.768;2023-11-19T04:42:30;98767.44;;;11.63;69.59
6506;BME280;3286;49.858;8.768;2023-11-19T04:44:57;98779.34;;;11.67;70.19
6506;BME280;3286;49.858;8.768;2023-11-19T04:47:25;98774.94;;;12.24;68.26
6506;BME280;3286;49.858;8.768;2023-11-19T04:49:51;98771.16;;;11.94;69.04
6506;BME280;3286;49.858;8.768;2023-11-19T04:52:18;98768.94;;;11.57;70.32
6506;BME280;3286;49.858;8.768;2023-11-19T04:54:45;98767.44;;;11.63;70.25
6506;BME280;3286;49.858;8.768;2023-11-19T04:57:11;98760.78;;;12.00;68.65
6506;BME280;3286;49.858;8.768;2023-11-19T04:59:38;98769.19;;;11.96;69.10
6506;BME280;3286;49.858;8.768;2023-11-19T05:02:05;98766.63;;;12.27;68.08
6506;BME280;3286;49.858;8.768;2023-11-19T05:04:33;98756.41;;;12.56;67.52
6506;BME280;3286;49.858;8.768;2023-11-19T05:07:00;98760.28;;;12.05;69.08
6506;BME280;3286;49.858;8.768;2023-11-19T05:09:27;98756.81;;;11.80;69.65
6506;BME280;3286;49.858;8.768;2023-11-19T05:11:53;98757.16;;;11.85;70.09
6506;BME280;3286;49.858;8.768;2023-11-19T05:14:20;98761.41;;;12.02;69.16
6506;BME280;3286;49.858;8.768;2023-11-19T05:16:47;98757.91;;;12.19;69.02
6506;BME280;3286;49.858;8.768;2023-11-19T05:19:13;98773.31;;;11.98;69.26
6506;BME280;3286;49.858;8.768;2023-11-19T05:21:43;98757.19;;;11.68;70.55
6506;BME280;3286;49.858;8.768;2023-11-19T05:24:09;98756.63;;;11.89;70.41
6506;BME280;3286;49.858;8.768;2023-11-19T05:26:37;98754.13;;;12.05;69.95
6506;BME280;3286;49.858;8.768;2023-11-19T05:29:04;98754.84;;;11.73;70.56
6506;BME280;3286;49.858;8.768;2023-11-19T05:31:31;98755.69;;;11.57;71.24
6506;BME280;3286;49.858;8.768;2023-11-19T05:33:57;98752.00;;;11.92;70.74
6506;BME280;3286;49.858;8.768;2023-11-19T05:36:24;98749.22;;;11.85;70.44
6506;BME280;3286;49.858;8.768;2023-11-19T05:38:52;98741.81;;;11.72;70.86
6506;BME280;3286;49.858;8.768;2023-11-19T05:41:18;98756.28;;;12.01;70.78
6506;BME280;3286;49.858;8.768;2023-11-19T05:43:45;98753.44;;;12.51;68.51
6506;BME280;3286;49.858;8.768;2023-11-19T05:46:12;98747.31;;;12.50;68.53
6506;BME280;3286;49.858;8.768;2023-11-19T05:48:38;98748.06;;;12.36;69.64
6506;BME280;3286;49.858;8.768;2023-11-19T05:51:05;98736.41;;;12.45;69.41
6506;BME280;3286;49.858;8.768;2023-11-19T05:53:32;98741.91;;;12.03;71.46
6506;BME280;3286;49.858;8.768;2023-11-19T05:56:00;98742.44;;;11.82;71.99
6506;BME280;3286;49.858;8.768;2023-11-19T05:58:29;98745.63;;;12.26;71.61
6506;BME280;3286;49.858;8.768;2023-11-19T06:00:56;98746.72;;;12.40;70.74
6506;BME280;3286;49.858;8.768;2023-11-19T06:03:23;98739.66;;;12.24;70.80
6506;BME280;3286;49.858;8.768;2023-11-19T06:05:50;98744.69;;;12.97;68.76
6506;BME280;3286;49.858;8.768;2023-11-19T06:08:16;98750.19;;;12.64;69.92
6506;BME280;3286;49.858;8.768;2023-11-19T06:10:45;98757.06;;;12.58;69.82
6506;BME280;3286;49.858;8.768;2023-11-19T06:13:13;98759.78;;;12.73;69.62
6506;BME280;3286;49.858;8.768;2023-11-19T06:15:41;98763.25;;;12.42;70.55
6506;BME280;3286;49.858;8.768;2023-11-19T06:18:08;98750.88;;;12.34;71.38
6506;BME280;3286;49.858;8.768;2023-11-19T06:20:35;98758.31;;;12.94;69.54
6506;BME280;3286;49.858;8.768;2023-11-19T06:23:01;98756.13;;;12.74;69.75
6506;BME280;3286;49.858;8.768;2023-11-19T06:25:28;98762.31;;;12.89;69.35
6506;BME280;3286;49.858;8.768;2023-11-19T06:27:55;98758.28;;;12.70;69.79
6506;BME280;3286;49.858;8.768;2023-11-19T06:30:23;98763.03;;;12.52;70.84
6506;BME280;3286;49.858;8.768;2023-11-19T06:32:51;98761.00;;;12.62;70.76
6506;BME280;3286;49.858;8.768;2023-11-19T06:35:18;98771.25;;;12.65;70.59
6506;BME280;3286;49.858;8.768;2023-11-19T06:37:44;98771.28;;;12.88;70.07
6506;BME280;3286;49.858;8.768;2023-11-19T06:40:11;98774.78;;;12.81;69.75
6506;BME280;3286;49.858;8.768;2023-11-19T06:42:38;98771.84;;;12.99;69.60
6506;BME280;3286;49.858;8.768;2023-11-19T06:45:06;98769.63;;;12.87;69.08
6506;BME280;3286;49.858;8.768;2023-11-19T06:47:34;98763.88;;;13.45;67.31
6506;BME280;3286;49.858;8.768;2023-11-19T06:50:01;98774.34;;;13.00;68.91
6506;BME280;3286;49.858;8.768;2023-11-19T06:52:30;98770.56;;;12.95;69.89
6506;BME280;3286;49.858;8.768;2023-11-19T06:54:57;98770.03;;;12.76;70.17
6506;BME280;3286;49.858;8.768;2023-11-19T06:57:23;98770.03;;;13.23;68.29
6506;BME280;3286;49.858;8.768;2023-11-19T06:59:50;98775.84;;;12.95;69.31
6506;BME280;3286;49.858;8.768;2023-11-19T07:02:17;98775.00;;;12.48;71.38
6506;BME280;3286;49.858;8.768;2023-11-19T07:04:44;98778.66;;;12.46;71.36
6506;BME280;3286;49.858;8.768;2023-11-19T07:07:11;98775.34;;;12.44;71.52
6506;BME280;3286;49.858;8.768;2023-11-19T07:09:40;98778.53;;;12.63;71.66
6506;BME280;3286;49.858;8.768;2023-11-19T07:12:07;98791.84;;;12.55;71.24
6506;BME280;3286;49.858;8.768;2023-11-19T07:14:33;98801.59;;;12.54;71.61
6506;BME280;3286;49.858;8.768;2023-11-19T07:17:00;98799.50;;;12.41;72.08
6506;BME280;3286;49.858;8.768;2023-11-19T07:19:27;98803.50;;;13.00;69.88
6506;BME280;3286;49.858;8.768;2023-11-19T07:21:55;98805.16;;;13.01;69.58
6506;BME280;3286;49.858;8.768;2023-11-19T07:24:21;98795.59;;;12.60;71.44
6506;BME280;3286;49.858;8.768;2023-11-19T07:26:48;98789.38;;;13.08;69.21
6506;BME280;3286;49.858;8.768;2023-11-19T07:29:15;98791.41;;;12.98;69.29
6506;BME280;3286;49.858;8.768;2023-11-19T07:31:41;98792.72;;;13.02;68.83
6506;BME280;3286;49.858;8.768;2023-11-19T07:34:09;98796.97;;;12.88;70.03
6506;BME280;3286;49.858;8.768;2023-11-19T07:36:37;98798.50;;;13.06;68.98
6506;BME280;3286;49.858;8.768;2023-11-19T07:39:05;98795.03;;;13.28;68.51
6506;BME280;3286;49.858;8.768;2023-11-19T07:41:32;98788.53;;;13.31;68.27
6506;BME280;3286;49.858;8.768;2023-11-19T07:43:58;98792.06;;;13.23;69.16
6506;BME280;3286;49.858;8.768;2023-11-19T07:46:25;98796.59;;;13.38;68.39
6506;BME280;3286;49.858;8.768;2023-11-19T07:48:52;98787.88;;;13.52;67.37
6506;BME280;3286;49.858;8.768;2023-11-19T07:51:19;98798.19;;;13.24;68.55
6506;BME280;3286;49.858;8.768;2023-11-19T07:53:45;98799.38;;;12.98;69.36
6506;BME280;3286;49.858;8.768;2023-11-19T07:56:13;98788.53;;;13.31;68.23
6506;BME280;3286;49.858;8.768;2023-11-19T07:58:40;98789.16;;;13.56;67.39
6506;BME280;3286;49.858;8.768;2023-11-19T08:01:07;98791.50;;;13.74;67.10
6506;BME280;3286;49.858;8.768;2023-11-19T08:03:33;98783.75;;;13.88;66.53
6506;BME280;3286;49.858;8.768;2023-11-19T08:06:01;98795.78;;;13.75;66.40
6506;BME280;3286;49.858;8.768;2023-11-19T08:08:29;98794.88;;;13.68;66.66
6506;BME280;3286;49.858;8.768;2023-11-19T08:10:57;98809.53;;;13.17;69.48
6506;BME280;3286;49.858;8.768;2023-11-19T08:13:26;98803.16;;;13.50;67.14
6506;BME280;3286;49.858;8.768;2023-11-19T08:15:52;98800.81;;;13.70;67.17
6506;BME280;3286;49.858;8.768;2023-11-19T08:18:19;98806.28;;;13.54;66.96
6506;BME280;3286;49.858;8.768;2023-11-19T08:20:45;98803.56;;;13.39;68.14
6506;BME280;3286;49.858;8.768;2023-11-19T08:23:18;98795.34;;;14.02;65.98
6506;BME280;3286;49.858;8.768;2023-11-19T08:25:44;98796.47;;;14.23;64.61
6506;BME280;3286;49.858;8.768;2023-11-19T08:28:11;98807.63;;;14.18;64.85
6506;BME280;3286;49.858;8.768;2023-11-19T08:30:39;98806.84;;;13.64;65.56
6506;BME280;3286;49.858;8.768;2023-11-19T08:33:06;98802.88;;;13.45;66.19
6506;BME280;3286;49.858;8.768;2023-11-19T08:35:32;98815.22;;;14.21;64.35
6506;BME280;3286;49.858;8.768;2023-11-19T08:37:59;98821.16;;;14.68;63.43
6506;BME280;3286;49.858;8.768;2023-11-19T08:40:27;98825.47;;;14.69;62.99
6506;BME280;3286;49.858;8.768;2023-11-19T08:42:53;98830.00;;;14.39;64.42
6506;BME280;3286;49.858;8.768;2023-11-19T08:45:21;98824.69;;;14.39;64.12
6506;BME280;3286;49.858;8.768;2023-11-19T08:47:49;98833.38;;;14.32;64.33
6506;BME280;3286;49.858;8.768;2023-11-19T08:50:15;98825.94;;;14.58;63.17
6506;BME280;3286;49.858;8.768;2023-11-19T08:52:42;98832.16;;;14.80;62.85
6506;BME280;3286;49.858;8.768;2023-11-19T08:55:09;98838.28;;;14.81;62.51
6506;BME280;3286;49.858;8.768;2023-11-19T08:57:37;98841.69;;;14.59;62.77
6506;BME280;3286;49.858;8.768;2023-11-19T09:00:04;98833.19;;;14.64;63.05
6506;BME280;3286;49.858;8.768;2023-11-19T09:02:33;98839.41;;;15.08;62.06
6506;BME280;3286;49.858;8.768;2023-11-19T09:05:01;98847.84;;;14.60;63.26
6506;BME280;3286;49.858;8.768;2023-11-19T09:07:28;98852.81;;;14.33;63.91
6506;BME280;3286;49.858;8.768;2023-11-19T09:09:54;98849.03;;;14.57;63.26
6506;BME280;3286;49.858;8.768;2023-11-19T09:12:21;98850.50;;;14.30;64.72
6506;BME280;3286;49.858;8.768;2023-11-19T09:14:48;98853.81;;;14.17;64.06
6506;BME280;3286;49.858;8.768;2023-11-19T09:17:15;98853.53;;;14.42;64.62
6506;BME280;3286;49.858;8.768;2023-11-19T09:19:43;98858.81;;;13.97;65.89
6506;BME280;3286;49.858;8.768;2023-11-19T09:22:11;98862.72;;;13.86;66.20
6506;BME280;3286;49.858;8.768;2023-11-19T09:24:37;98870.78;;;13.77;66.71
6506;BME280;3286;49.858;8.768;2023-11-19T09:27:04;98856.75;;;13.45;67.39
6506;BME280;3286;49.858;8.768;2023-11-19T09:29:31;98854.03;;;13.77;66.80
6506;BME280;3286;49.858;8.768;2023-11-19T09:31:58;98869.38;;;13.12;68.72
6506;BME280;3286;49.858;8.768;2023-11-19T09:34:24;98866.41;;;13.46;67.73
6506;BME280;3286;49.858;8.768;2023-11-19T09:36:51;98852.13;;;13.39;67.77
6506;BME280;3286;49.858;8.768;2023-11-19T09:39:19;98859.75;;;13.66;66.91
6506;BME280;3286;49.858;8.768;2023-11-19T09:41:46;98866.00;;;13.73;66.54
6506;BME280;3286;49.858;8.768;2023-11-19T09:44:14;98876.69;;;14.03;65.73
6506;BME280;3286;49.858;8.768;2023-11-19T09:46:43;98875.06;;;13.79;66.52
6506;BME280;3286;49.858;8.768;2023-11-19T09:49:11;98859.38;;;13.92;66.14
6506;BME280;3286;49.858;8.768;2023-11-19T09:51:38;98849.13;;;14.34;64.36
6506;BME280;3286;49.858;8.768;2023-11-19T09:54:05;98858.16;;;13.95;65.55
6506;BME280;3286;49.858;8.768;2023-11-19T09:56:35;98861.00;;;13.78;66.18
6506;BME280;3286;49.858;8.768;2023-11-19T09:59:04;98858.53;;;13.91;65.42
6506;BME280;3286;49.858;8.768;2023-11-19T10:01:31;98847.09;;;13.91;65.87
6506;BME280;3286;49.858;8.768;2023-11-19T10:03:58;98858.16;;;13.56;67.71
6506;BME280;3286;49.858;8.768;2023-11-19T10:06:26;98852.06;;;14.24;66.04
6506;BME280;3286;49.858;8.768;2023-11-19T10:08:53;98852.78;;;14.03;65.63
6506;BME280;3286;49.858;8.768;2023-11-19T10:11:20;98853.88;;;13.94;66.12
6506;BME280;3286;49.858;8.768;2023-11-19T10:13:48;98856.56;;;14.24;65.28
6506;BME280;3286;49.858;8.768;2023-11-19T10:16:15;98866.00;;;13.73;67.07
6506;BME280;3286;49.858;8.768;2023-11-19T10:18:45;98865.47;;;13.77;66.71
6506;BME280;3286;49.858;8.768;2023-11-19T10:21:12;98871.97;;;12.97;70.54
6506;BME280;3286;49.858;8.768;2023-11-19T10:23:49;98863.75;;;13.46;68.35
6506;BME280;3286;49.858;8.768;2023-11-19T10:26:16;98863.94;;;13.83;68.16
6506;BME280;3286;49.858;8.768;2023-11-19T10:28:43;98846.38;;;14.42;65.00
6506;BME280;3286;49.858;8.768;2023-11-19T10:31:12;98849.13;;;15.16;63.35
6506;BME280;3286;49.858;8.768;2023-11-19T10:33:39;98858.19;;;14.85;63.82
6506;BME280;3286;49.858;8.768;2023-11-19T10:36:06;98844.19;;;14.76;64.46
6506;BME280;3286;49.858;8.768;2023-11-19T10:38:33;98849.25;;;15.07;63.42
6506;BME280;3286;49.858;8.768;2023-11-19T10:41:00;98844.50;;;15.25;63.59
6506;BME280;3286;49.858;8.768;2023-11-19T10:43:27;98845.66;;;15.59;62.55
6506;BME280;3286;49.858;8.768;2023-11-19T10:45:53;98853.44;;;15.17;63.07
6506;BME280;3286;49.858;8.768;2023-11-19T10:48:21;98854.69;;;14.99;63.28
6506;BME280;3286;49.858;8.768;2023-11-19T10:50:53;98848.16;;;15.45;62.84
6506;BME280;3286;49.858;8.768;2023-11-19T10:53:21;98845.47;;;15.89;61.54
6506;BME280;3286;49.858;8.768;2023-11-19T10:55:51;98841.16;;;15.38;61.72
6506;BME280;3286;49.858;8.768;2023-11-19T10:58:20;98832.53;;;15.86;61.73
6506;BME280;3286;49.858;8.768;2023-11-19T11:00:51;98831.22;;;16.32;60.44
6506;BME280;3286;49.858;8.768;2023-11-19T11:03:20;98823.34;;;16.17;60.13
6506;BME280;3286;49.858;8.768;2023-11-19T11:05:50;98818.72;;;16.32;57.80
6506;BME280;3286;49.858;8.768;2023-11-19T11:08:19;98819.22;;;16.14;59.41
6506;BME280;3286;49.858;8.768;2023-11-19T11:10:52;98815.13;;;16.60;57.16
6506;BME280;3286;49.858;8.768;2023-11-19T11:13:19;98812.97;;;16.91;57.32
6506;BME280;3286;49.858;8.768;2023-11-19T11:15:46;98807.59;;;16.77;57.63
6506;BME280;3286;49.858;8.768;2023-11-19T11:18:13;98809.81;;;16.18;57.76
6506;BME280;3286;49.858;8.768;2023-11-19T11:20:40;98813.06;;;15.35;60.08
6506;BME280;3286;49.858;8.768;2023-11-19T11:23:37;98801.00;;;16.18;59.08
6506;BME280;3286;49.858;8.768;2023-11-19T11:26:23;98808.69;;;15.71;61.41
6506;BME280;3286;49.858;8.768;2023-11-19T11:28:58;98807.44;;;16.37;58.76
6506;BME280;3286;49.858;8.768;2023-11-19T11:31:34;98804.03;;;16.50;57.02
6506;BME280;3286;49.858;8.768;2023-11-19T11:34:17;98806.00;;;16.83;56.82
6506;BME280;3286;49.858;8.768;2023-11-19T11:36:53;98804.53;;;15.18;60.49
6506;BME280;3286;49.858;8.768;2023-11-19T11:39:28;98798.06;;;16.06;58.24
6506;BME280;3286;49.858;8.768;2023-11-19T11:44:58;98797.44;;;16.46;56.67
6506;BME280;3286;49.858;8.768;2023-11-19T11:48:06;98797.81;;;15.00;60.78
6506;BME280;3286;49.858;8.768;2023-11-19T11:50:36;98792.19;;;15.89;58.95
6506;BME280;3286;49.858;8.768;2023-11-19T11:53:16;98792.09;;;15.25;60.40
6506;BME280;3286;49.858;8.768;2023-11-19T11:55:57;98798.31;;;16.18;57.87
6506;BME280;3286;49.858;8.768;2023-11-19T11:58:32;98808.78;;;15.62;58.49
6506;BME280;3286;49.858;8.768;2023-11-19T12:01:03;98798.19;;;15.19;59.58
6506;BME280;3286;49.858;8.768;2023-11-19T12:03:33;98790.91;;;15.78;58.43
6506;BME280;3286;49.858;8.768;2023-11-19T12:06:00;98789.38;;;15.90;57.88
6506;BME280;3286;49.858;8.768;2023-11-19T12:08:28;98781.91;;;15.07;59.98
6506;BME280;3286;49.858;8.768;2023-11-19T12:10:58;98784.31;;;15.74;58.44
6506;BME280;3286;49.858;8.768;2023-11-19T12:13:29;98774.16;;;15.34;58.94
6506;BME280;3286;49.858;8.768;2023-11-19T12:16:10;98772.75;;;15.60;58.59
6506;BME280;3286;49.858;8.768;2023-11-19T12:18:39;98778.94;;;14.43;59.42
6506;BME280;3286;49.858;8.768;2023-11-19T12:21:06;98768.50;;;15.15;57.08
6506;BME280;3286;49.858;8.768;2023-11-19T12:23:35;98763.41;;;15.99;54.00
6506;BME280;3286;49.858;8.768;2023-11-19T12:26:03;98763.78;;;16.38;52.69
6506;BME280;3286;49.858;8.768;2023-11-19T12:28:30;98781.97;;;16.83;51.08
6506;BME280;3286;49.858;8.768;2023-11-19T12:31:07;98762.69;;;16.81;50.52
6506;BME280;3286;49.858;8.768;2023-11-19T12:33:35;98772.53;;;15.90;51.55
6506;BME280;3286;49.858;8.768;2023-11-19T12:36:03;98771.09;;;16.85;48.86
6506;BME280;3286;49.858;8.768;2023-11-19T12:38:31;98776.13;;;16.46;50.48
6506;BME280;3286;49.858;8.768;2023-11-19T12:41:07;98772.13;;;16.21;49.96
6506;BME280;3286;49.858;8.768;2023-11-19T12:43:36;98772.69;;;16.65;49.64
6506;BME280;3286;49.858;8.768;2023-11-19T12:46:03;98768.75;;;15.49;47.22
6506;BME280;3286;49.858;8.768;2023-11-19T12:48:42;98783.75;;;16.56;46.57
6506;BME280;3286;49.858;8.768;2023-11-19T12:51:09;98777.63;;;15.56;47.63
6506;BME280;3286;49.858;8.768;2023-11-19T12:53:47;98759.88;;;15.92;49.37
6506;BME280;3286;49.858;8.768;2023-11-19T12:56:16;98766.72;;;16.63;45.64
6506;BME280;3286;49.858;8.768;2023-11-19T12:58:43;98748.78;;;16.30;45.31
6506;BME280;3286;49.858;8.768;2023-11-19T13:01:09;98751.94;;;16.05;45.99
6506;BME280;3286;49.858;8.768;2023-11-19T13:03:41;98764.75;;;15.10;47.27
6506;BME280;3286;49.858;8.768;2023-11-19T13:06:10;98769.50;;;14.41;49.19
6506;BME280;3286;49.858;8.768;2023-11-19T13:08:38;98761.97;;;16.03;46.94
6506;BME280;3286;49.858;8.768;2023-11-19T13:11:06;98754.28;;;15.58;47.08
6506;BME280;3286;49.858;8.768;2023-11-19T13:13:53;98767.97;;;15.27;45.98
6506;BME280;3286;49.858;8.768;2023-11-19T13:16:19;98757.25;;;14.76;47.20
6506;BME280;3286;49.858;8.768;2023-11-19T13:18:46;98754.19;;;15.45;48.50
6506;BME280;3286;49.858;8.768;2023-11-19T13:21:13;98747.91;;;15.81;45.35
6506;BME280;3286;49.858;8.768;2023-11-19T13:23:39;98751.31;;;15.18;46.52
6506;BME280;3286;49.858;8.768;2023-11-19T13:26:06;98749.50;;;16.11;46.22
6506;BME280;3286;49.858;8.768;2023-11-19T13:28:33;98749.16;;;16.27;44.19
6506;BME280;3286;49.858;8.768;2023-11-19T13:31:01;98746.75;;;15.90;44.65